Weather observations for the past three days for
Bryan Coulter Field
Metric (Imperial)
Date Time (cdt) Wind (kph) Vis. (km) Weather Sky Cond. Temperature (ºC) Relative Humidity Wind Chill (°C) Heat Index (°C) Pressure Precipitation (cm)
Air Dwpt 6 hour altimeter (cm) sea level (mb) 1 hr 3 hr 6 hr
Max. Min.
06 18:15 NE 7 16.09 Fair CLR 32.1 24.1 63% 38 75.9 0.0
06 17:55 Calm 16.09 Fair CLR 32.1 24.5 64% 39 75.92 0.0
06 17:35 Calm 16.09 Fair CLR 31.1 25 70% 38 75.92 0.0
06 17:15 Calm 16.09 Fair CLR 28.9 26.3 86% 36 75.92 0.0
06 16:55 Calm 16.09 Partly Cloudy SCT030 SCT043 SCT055 28 25.4 86% 33 75.95 0.0 0.38
06 16:35 NW 6 8.05 Light Rain SCT024 BKN034 BKN050 27 24.8 88% 31 75.95 0.0 0.38
06 16:15 N 9 6.44 Rain SCT022 BKN050 OVC080 26.5 24.5 89% 29 76 0.0 0.25
06 15:55 N 9 G 31 8.05 Rain SCT047 BKN060 OVC070 27.4 23.1 77% 30 76.02 0.0 0.36 0.36
06 15:35 W 15 16.09 Overcast SCT015 BKN048 OVC055 27.7 23.8 79% 31 76.02 0.0 0.15
06 15:15 SE 17 16.09 Light Rain BKN046 BKN120 32.7 22.4 55% 37 76 0.0
06 14:55 Calm 16.09 Thunderstorm in Vicinity SCT110 34.1 22.6 51% 39 76 0.0
06 14:35 N 11 16.09 Overcast SCT050 SCT070 OVC110 32.4 22.9 57% 37 76.02 0.0
06 14:15 NW 17 16.09 Overcast BKN050 BKN070 OVC085 32.6 22.1 54% 37 76.02 0.0
06 13:55 NW 9 G 28 16.09 NULL NULL 30 22.1 63% 33 76.05 0.0
06 13:35 S 7 16.09 Overcast OVC047 33.2 22.5 53% 38 76.05 0.0
06 13:15 S 6 16.09 Overcast BKN045 OVC055 32.5 22.2 55% 37 76.05 0.0
06 12:55 W 6 16.09 Overcast BKN045 OVC050 32.5 22.4 33.8 24.6 55% 37 76.07 0.0
06 12:35 W 7 16.09 Mostly Cloudy BKN047 BKN050 32.6 22.5 55% 37 76.1 0.0
06 12:15 Calm 16.09 Partly Cloudy SCT060 SCT065 32.5 20.6 49% 35 76.12 0.0
06 11:55 SE 6 16.09 Mostly Cloudy SCT050 BKN060 33.4 21.7 50% 37 76.12 0.0
06 11:35 S 6 16.09 Mostly Cloudy SCT034 BKN050 BKN060 32.8 22.3 54% 37 76.15 0.0
06 11:15 SE 7 16.09 Mostly Cloudy SCT034 BKN060 32.6 23.2 58% 38 76.15 0.0
06 10:55 Calm 16.09 Partly Cloudy SCT060 31.5 21.7 56% 35 76.15 0.0
06 10:35 Calm 16.09 Partly Cloudy SCT060 SCT100 31.2 23.6 64% 36 76.15 0.0
06 10:15 Calm 16.09 Mostly Cloudy SCT085 BKN100 29.6 25.1 77% 36 76.15 0.0
06 09:55 SE 7 16.09 Overcast OVC075 28.2 25.1 83% 33 76.15 0.0
06 09:35 S 9 16.09 Overcast OVC075 28 25 84% 33 76.15 0.0
06 09:15 Calm 16.09 Mostly Cloudy BKN075 27.6 25.1 86% 32 76.15 0.0
06 08:55 Calm 11.27 Overcast OVC075 26.5 25 92% 29 76.12 0.0
06 08:35 Calm 16.09 Overcast OVC075 26 25 94% 28 76.12 0.0
06 08:15 SE 6 16.09 Overcast SCT055 OVC065 25.5 24.8 96% 27 76.12 0.0
06 07:55 S 6 16.09 Overcast SCT055 OVC075 25.1 24.6 97% 26 76.12 0.0
06 07:35 Calm 11.27 Overcast OVC075 24.9 24.4 97% 25 76.1 0.0
06 07:15 Calm 16.09 Overcast OVC075 24.6 24 96% 24 76.07 0.0
06 06:55 Calm 16.09 Overcast OVC075 24.6 24.1 26.5 24.2 97% 24 76.05 0.0
06 06:35 SE 6 16.09 Overcast OVC065 24.7 24.2 97% 25 76.05 0.0
06 06:15 SE 6 16.09 Overcast OVC065 24.6 24.1 97% 24 76.05 0.0
06 05:55 E 6 11.27 Partly Cloudy SCT065 24.2 23.7 97% 23 76.02 0.0
06 05:35 Calm 11.27 Fair CLR 24.4 23.7 96% 24 76 0.0
06 05:15 E 6 16.09 Fair CLR 24.5 23.8 96% 24 75.97 0.0
06 04:55 Calm 16.09 Fair CLR 24.7 23.8 95% 25 75.97 0.0
06 04:35 Calm 16.09 Fair CLR 25.1 23.7 92% 26 75.97 0.0
06 04:15 Calm 16.09 Fair CLR 25.6 23.7 89% 27 75.97 0.0
06 03:55 Calm 16.09 Fair CLR 26.1 23.8 87% 28 75.97 0.0
06 03:35 Calm 16.09 Fair CLR 26.1 23.8 87% 28 75.97 0.0
06 03:15 S 6 16.09 Fair CLR 26.1 23.8 87% 28 76 0.0
06 02:55 S 7 16.09 Fair CLR 26.2 23.9 87% 28 76 0.0
06 02:35 S 7 16.09 Fair CLR 26.2 24 88% 28 76 0.0
06 02:15 S 6 16.09 Fair CLR 26.5 24 86% 29 76 0.0
06 01:55 S 6 16.09 Fair CLR 26.5 24 86% 29 76.02 0.0
06 01:35 Calm 16.09 Fair CLR 25.8 24 90% 28 76.02 0.0
06 01:15 Calm 16.09 Fair CLR 25.2 23.7 91% 26 76.02 0.0
06 00:55 Calm 16.09 Fair CLR 25.1 23.7 29.2 25.1 92% 26 76.05 0.0
06 00:35 SE 6 16.09 Fair CLR 25.4 23.5 89% 27 76.02 0.0
06 00:15 S 7 16.09 Fair CLR 25.6 23.5 88% 27 76.02 0.0
05 23:55 SE 7 16.09 Fair CLR 25.5 23.5 89% 27 76.05 0.0
05 23:35 SE 7 16.09 Fair CLR 25.3 23.5 90% 26 76.02 0.0
05 23:15 E 6 16.09 Fair CLR 25.5 23.5 89% 27 76.02 0.0
05 22:55 Calm 16.09 Fair CLR 25.5 23.6 89% 27 76.02 0.0
05 22:35 SE 7 16.09 Fair CLR 25.8 23.6 88% 27 76.02 0.0
05 22:15 E 6 16.09 Fair CLR 26 23.6 87% 28 76.05 0.0
05 21:55 SE 9 16.09 Fair CLR 26.1 23.6 86% 28 76.02 0.0
05 21:35 SE 7 16.09 Fair CLR 26.3 23.5 85% 29 76 0.0
05 21:15 SE 6 16.09 Fair CLR 26.2 23.3 84% 28 76 0.0
05 20:55 E 6 16.09 Fair CLR 26.6 23.1 81% 29 75.97 0.0
05 20:35 E 6 16.09 Fair CLR 27 23 79% 30 75.95 0.0
05 20:15 E 7 16.09 Fair CLR 27.1 22.7 77% 30 75.92 0.0
05 19:55 E 13 16.09 Fair CLR 27.8 22.6 73% 31 75.95 0.0
05 19:35 E 11 16.09 Fair CLR 28.1 22.6 72% 31 75.95 0.0
05 19:15 E 11 16.09 Fair CLR 28.8 22.4 68% 32 75.97 0.0
05 18:55 E 13 16.09 Fair CLR 29.2 22.5 35.3 29.2 67% 33 75.97 0.0
05 18:35 E 15 16.09 Fair CLR 29.5 22.9 68% 33 75.95 0.0
05 18:15 E 17 G 26 16.09 Fair CLR 30 22.8 65% 34 75.95 0.0
05 17:55 E 26 16.09 Fair CLR 31.6 23.3 61% 37 75.92 0.0
05 17:35 Calm 16.09 Fair CLR 31.2 23.2 62% 36 75.92 0.0
05 17:15 E 6 16.09 Fair CLR 29.6 23.2 69% 34 75.95 0.0
05 16:55 E 13 16.09 Fair CLR 30.4 23.1 65% 35 75.92 0.0
05 16:35 Calm 16.09 Partly Cloudy SCT120 32.7 21.8 53% 36 75.92 0.0
05 16:15 Calm 16.09 Partly Cloudy SCT120 32.7 21.6 52% 36 75.95 0.0
05 15:55 W 7 16.09 Partly Cloudy SCT100 33 21.6 51% 37 75.95 0.0
05 15:35 W 11 16.09 Thunderstorm in Vicinity BKN100 33.6 22.6 53% 38 75.97 0.0
05 15:15 W 13 16.09 Partly Cloudy SCT120 31.7 23 60% 36 75.97 0.0
05 14:55 W 13 16.09 Partly Cloudy SCT055 30.4 22.8 64% 34 76 0.0
05 12:55 S 9 16.09 Mostly Cloudy BKN049 BKN060 33.4 21.6 34.7 23.7 50% 37 76.1 0.0
05 12:35 Calm 16.09 Mostly Cloudy SCT043 BKN049 33.9 21.9 49% 38 76.12 0.0
05 12:15 Calm 16.09 Partly Cloudy SCT041 33.2 21.9 51% 37 76.15 0.0
05 11:55 Calm 16.09 Mostly Cloudy BKN039 32.5 22.5 56% 37 76.17 0.0
05 11:35 SW 7 16.09 Overcast BKN039 BKN044 OVC050 32.3 22.9 58% 37 76.15 0.0
05 11:15 SW 7 16.09 Partly Cloudy SCT035 SCT050 31.3 22.6 60% 35 76.17 0.0
05 10:55 Calm 16.09 Fair CLR 31.9 22.5 58% 36 76.17 0.0
05 10:35 S 7 16.09 Partly Cloudy SCT026 31.5 23.2 61% 36 76.17 0.0
05 10:15 SW 6 16.09 Partly Cloudy SCT024 31 23.8 66% 36 76.17 0.0
05 09:55 W 7 16.09 Fair CLR 30 24 70% 35 76.17 0.0
05 09:35 Calm 16.09 Fair CLR 28.9 24.3 76% 34 76.17 0.0
05 09:15 Calm 16.09 Fair CLR 28.2 24.7 81% 33 76.17 0.0
05 08:55 Calm 16.09 Fair CLR 27.3 24.7 86% 31 76.17 0.0
05 08:35 Calm 16.09 Fair CLR 26.5 24.6 89% 29 76.17 0.0
05 08:15 Calm 16.09 Fair CLR 25.2 24.5 96% 26 76.15 0.0
05 07:55 Calm 11.27 Fair CLR 24.5 24 97% 24 76.12 0.0
05 07:35 Calm 11.27 Fair CLR 23.8 23.5 98% 76.12 0.0
05 07:15 Calm 11.27 Fair CLR 23.7 23.3 98% 76.1 0.0
05 06:55 Calm 16.09 Fair CLR 23.8 23.3 27.2 23.7 97% 76.1 0.0
05 06:35 Calm 16.09 Fair CLR 24 23.5 97% 23 76.07 0.0
05 06:15 Calm 16.09 Fair CLR 24.1 23.5 96% 23 76.07 0.0
05 05:55 Calm 16.09 Fair CLR 24.4 23.7 96% 24 76.07 0.0
05 05:35 Calm 16.09 Fair CLR 24.2 23.3 95% 24 76.05 0.0
05 05:15 Calm 16.09 Fair CLR 24.8 23.5 93% 25 76.05 0.0
05 04:55 Calm 16.09 Fair CLR 25.7 23.9 90% 27 76.05 0.0
05 04:35 Calm 16.09 Fair CLR 25.3 23.8 91% 26 76.05 0.0
05 04:15 Calm 16.09 Fair CLR 25.6 23.8 90% 27 76.05 0.0
05 03:55 Calm 16.09 Fair CLR 25.8 23.8 89% 28 76.05 0.0
05 03:35 SW 6 16.09 Fair CLR 26 23.8 88% 28 76.05 0.0
05 03:15 Calm 16.09 Fair CLR 26.2 23.8 87% 28 76.05 0.0
05 02:55 S 6 16.09 Fair CLR 26.5 24 86% 29 76.05 0.0
05 02:35 S 6 16.09 Fair CLR 26.5 24 86% 29 76.05 0.0
05 02:15 S 9 16.09 Fair CLR 26.6 23.8 85% 29 76.05 0.0
05 01:55 S 7 16.09 Fair CLR 27 23.8 83% 30 76.07 0.0
05 01:35 S 11 16.09 Fair CLR 27 23.7 82% 30 76.07 0.0
05 01:15 S 13 16.09 Fair CLR 27.1 23.5 81% 30 76.07 0.0
05 00:55 S 9 16.09 Fair CLR 27 23.3 32.2 26.2 80% 30 76.1 0.0
05 00:35 S 7 16.09 Fair CLR 27.2 23.1 78% 30 76.1 0.0
05 00:15 S 6 16.09 Fair CLR 26.7 23 80% 29 76.07 0.0
04 23:55 S 7 16.09 Fair CLR 26.9 23 79% 29 76.07 0.0
04 23:35 S 9 16.09 Fair CLR 27.2 23 78% 30 76.07 0.0
04 23:15 S 9 16.09 Fair CLR 27.2 23 78% 30 76.07 0.0
04 22:55 SE 7 16.09 Fair CLR 26.9 23 79% 29 76.1 0.0
04 22:35 SE 11 16.09 Fair CLR 27.3 22.8 76% 30 76.1 0.0
04 22:15 SE 9 16.09 Fair CLR 26.2 22.7 81% 28 76.1 0.0
04 21:55 SE 7 16.09 Fair CLR 26.6 22.6 79% 29 76.07 0.0
04 21:35 SE 9 16.09 Fair CLR 26.7 22.5 78% 29 76.07 0.0
04 21:15 SE 7 16.09 Fair CLR 27 22.3 76% 29 76.07 0.0
04 20:55 S 7 16.09 Fair CLR 28 21.8 69% 31 76.05 0.0
04 20:35 SE 7 16.09 Fair CLR 28 21.7 69% 30 76.05 0.0
04 20:15 SE 7 16.09 Fair CLR 28.3 21.5 67% 31 76.02 0.0
04 19:55 SE 9 16.09 Fair CLR 29.5 21 60% 32 76 0.0
04 19:35 SE 11 16.09 Fair CLR 30.5 20.3 54% 33 75.97 0.0
04 19:15 SE 9 16.09 Fair CLR 31.6 20.5 52% 34 75.97 0.0
04 18:55 SE 13 16.09 Fair CLR 32.4 20.5 33.4 31.6 49% 35 76 0.0
04 18:35 Calm 16.09 Fair CLR 32.9 20.2 47% 35 75.97 0.0
04 18:15 S 13 16.09 Fair CLR 33 19.4 45% 35 75.97 0.0
04 17:55 S 13 16.09 Fair CLR 33.3 20.7 48% 36 75.97 0.0
04 17:35 S 17 16.09 Fair CLR 33.4 20.8 48% 36 75.97 0.0
04 17:15 SE 11 16.09 Fair CLR 33.3 21.6 50% 37 76 0.0
04 16:55 SE 15 16.09 Fair CLR 33 21.8 52% 37 76 0.0
04 16:35 S 15 16.09 Fair CLR 33.2 22.5 53% 38 76.02 0.0
04 16:15 SE 13 16.09 Fair CLR 33.1 24.2 60% 40 76.05 0.0
04 15:55 SE 17 G 26 16.09 Fair CLR 32.3 23.9 61% 38 76.05 0.0
04 15:35 SE 17 16.09 Fair CLR 31.8 23.9 63% 38 76.05 0.0
04 15:15 S 11 16.09 Fair CLR 31.7 24.1 64% 38 76.07 0.0
04 14:55 SE 15 16.09 Fair CLR 32 23.8 62% 38 76.07 0.0
04 14:35 SE 15 16.09 Fair CLR 32.6 24.5 62% 39 76.07 0.0
04 14:15 SE 15 16.09 Fair CLR 31.9 24.4 65% 38 76.12 0.0
04 13:55 SE 15 16.09 Fair CLR 32.2 24.1 62% 38 76.12 0.0
04 13:35 SE 15 16.09 Fair CLR 31.9 23.5 61% 37 76.15 0.0
04 13:15 S 13 16.09 Fair CLR 31.9 23 59% 37 76.15 0.0
04 12:55 S 9 16.09 Fair CLR 31.9 23.1 33.6 25.5 60% 37 76.17 0.0
04 12:35 S 9 16.09 Partly Cloudy SCT041 SCT060 SCT120 32.3 23 58% 37 76.17 0.0
04 12:15 S 15 G 26 16.09 Overcast SCT039 BKN055 OVC120 33.4 22.8 54% 38 76.2 0.0
04 11:55 S 6 16.09 Mostly Cloudy SCT040 SCT046 BKN070 33.1 23.6 57% 39 76.2 0.0
04 11:35 SE 9 16.09 Mostly Cloudy SCT034 BKN041 31.9 23.4 61% 37 76.2 0.0
04 11:15 Calm 16.09 Partly Cloudy SCT032 31.4 23 61% 36 76.2 0.0
04 10:55 SE 7 16.09 Partly Cloudy SCT024 30 24.4 72% 36 76.2 0.0
04 10:35 S 13 16.09 Partly Cloudy SCT024 31.1 23.9 66% 37 76.2 0.0
04 10:15 S 9 16.09 Partly Cloudy SCT018 30.5 24.7 71% 37 76.2 0.0
04 09:55 S 13 16.09 Partly Cloudy SCT013 SCT018 29.8 25.4 77% 36 76.17 0.0
04 09:35 SE 11 16.09 Mostly Cloudy BKN013 BKN018 28.7 26.1 86% 35 76.17 0.0
04 09:15 SE 6 16.09 Partly Cloudy SCT011 28.4 25.7 85% 34 76.17 0.0
04 08:55 E 6 16.09 Partly Cloudy SCT009 SCT014 28 25.7 87% 33 76.17 0.0
04 08:35 SE 6 16.09 Partly Cloudy SCT009 27.7 25.8 89% 33 76.17 0.0
04 08:15 SE 11 16.09 Fair CLR 27 26.1 95% 31 76.15 0.0
04 07:55 E 6 16.09 Fair CLR 26.1 25.7 98% 29 76.12 0.0
04 07:35 Calm 11.27 Light Drizzle SCT011 SCT100 25.7 25.3 98% 27 76.12 0.0
04 07:15 Calm 8.05 Fog/Mist SCT003 SCT100 25.5 25 97% 27 76.1 0.0
04 06:55 E 6 11.27 Partly Cloudy SCT002 25.5 25 26.4 25.5 97% 27 76.07 0.0
04 06:35 E 6 8.05 Fog/Mist SCT002 25.5 25 97% 27 76.07 0.0
04 06:15 E 6 11.27 Fair CLR 25.5 25.1 98% 27 76.05 0.0
04 05:55 Calm 11.27 Fair CLR 25.5 25.1 98% 27 76.05 0.0
04 05:35 Calm 16.09 Fair CLR 25.7 25.2 97% 27 76.05 0.0
04 05:15 Calm 16.09 Fair CLR 25.6 25.1 97% 27 76.05 0.0
04 04:55 Calm 16.09 Partly Cloudy SCT110 25.6 25.1 97% 27 76.05 0.0
04 04:35 Calm 16.09 Fair CLR 25.5 25 97% 27 76.05 0.0
04 04:15 Calm 16.09 Partly Cloudy SCT013 25.6 25 97% 27 76.05 0.0
04 03:55 E 6 16.09 Mostly Cloudy BKN013 25.8 25.1 96% 28 76.05 0.0
04 03:35 SE 6 16.09 Mostly Cloudy SCT015 BKN120 26 25.2 95% 28 76.05 0.0
04 03:15 S 9 16.09 Mostly Cloudy SCT018 SCT023 BKN120 26.2 25.3 95% 29 76.05 0.0
04 02:55 S 9 16.09 Light Rain SCT020 SCT055 OVC120 26.3 25.2 94% 29 76.05 0.0
04 02:35 S 11 16.09 Overcast SCT047 SCT060 OVC110 26.2 25.2 94% 29 76.05 0.0
04 02:15 S 9 16.09 Overcast OVC110 26.1 25.2 95% 29 76.05 0.0
04 01:55 S 6 16.09 Overcast BKN011 OVC110 26 25.1 95% 28 76.07 0.0
04 01:35 E 6 16.09 Overcast BKN011 OVC120 25.6 24.7 95% 27 76.07 0.0
04 01:15 Calm 16.09 Overcast SCT015 OVC120 26 24.8 93% 28 76.07 0.0
04 00:55 SE 7 16.09 Overcast SCT015 OVC110 26.1 24.6 26.1 25.5 91% 28 76.07 0.0 0.03
04 00:35 Calm 16.09 Rain OVC110 26 24.3 90% 28 76.07 0.0
04 00:15 SE 6 16.09 Light Drizzle OVC110 26 24.1 89% 28 76.05 0.0
03 23:55 SE 7 16.09 Overcast OVC100 25.6 24 91% 27 76.05 0.0
03 23:35 SE 11 16.09 Overcast BKN100 OVC120 25.5 24 91% 27 76.05 0.0
03 23:15 E 6 16.09 Overcast OVC120 25.5 24 91% 27 76.07 0.0
03 22:55 E 7 16.09 Mostly Cloudy BKN110 25.5 23.9 91% 27 76.07 0.0
03 22:35 E 6 16.09 Fair CLR 25.6 23.8 90% 27 76.05 0.0
03 22:15 SE 7 16.09 Fair CLR 25.6 23.7 89% 27 76.05 0.0
03 21:55 SE 9 16.09 Partly Cloudy SCT120 25.6 23.6 89% 27 76.05 0.0 0.03
03 21:35 SE 7 16.09 Overcast OVC120 25.8 23.6 88% 27 76.05 0.0
03 21:15 SE 7 16.09 Mostly Cloudy BKN120 26 23.5 86% 28 76 0.0
03 20:55 SE 15 16.09 Fair CLR 26 23.5 86% 28 76 0.0
03 20:35 SE 13 16.09 Fair CLR 26.1 23.4 85% 28 75.97 0.0
03 20:15 SE 11 16.09 Fair CLR 26.1 23.4 85% 28 75.95 0.0
03 19:55 SE 13 16.09 Fair CLR 26.1 23.5 86% 28 75.95 0.0 0.03
03 19:35 SE 13 16.09 Fair CLR 26 23.9 88% 28 75.95 0.0 0.03
03 19:15 SE 9 16.09 Light Rain SCT050 SCT070 SCT100 26 24.4 91% 28 75.95 0.0 0.03
03 18:55 SE 9 16.09 Mostly Cloudy SCT055 SCT100 BKN120 26.1 24.1 27 25.2 89% 28 75.95 0.0 0.1
03 18:35 SE 11 16.09 Partly Cloudy SCT120 26.3 24.1 88% 29 75.95 0.0
Date Time (cdt) Wind (kph) Vis. (km) Weather Sky Cond. Air Dwpt Max. Min. Relative Humidity Wind Chill (°C) Heat Index (°C) altimeter (cm) sea level (mb) 1 hr 3 hr 6 hr
6 hour
Temperature (ºC) Pressure Precipitation (cm)